createdAt,value
2019-02-02T00:02:28.365Z,96666.17
2019-02-02T00:05:00.378Z,96673.20
2019-02-02T00:07:33.376Z,96681.58
2019-02-02T00:10:06.426Z,96673.52
2019-02-02T00:12:37.812Z,96668.68
2019-02-02T00:15:09.902Z,96686.42
2019-02-02T00:17:41.979Z,96679.47
2019-02-02T00:20:13.877Z,96673.31
2019-02-02T00:22:45.402Z,96664.20
2019-02-02T00:25:17.034Z,96657.78
2019-02-02T00:27:49.974Z,96638.19
2019-02-02T00:30:21.825Z,96638.84
2019-02-02T00:32:53.175Z,96651.23
2019-02-02T00:35:24.841Z,96641.64
2019-02-02T00:37:55.955Z,96655.72
2019-02-02T00:40:27.323Z,96640.70
2019-02-02T00:43:01.524Z,96648.57
2019-02-02T00:45:34.134Z,96652.91
2019-02-02T00:48:06.316Z,96653.48
2019-02-02T00:50:37.487Z,96659.16
2019-02-02T00:53:08.692Z,96644.97
2019-02-02T00:55:39.871Z,96631.53
2019-02-02T00:58:11.067Z,96633.13
2019-02-02T01:00:43.903Z,96644.41
2019-02-02T01:03:15.410Z,96632.89
2019-02-02T01:05:46.712Z,96634.49
2019-02-02T01:08:17.932Z,96634.52
2019-02-02T01:10:49.394Z,96631.02
2019-02-02T01:13:20.612Z,96626.03
2019-02-02T01:15:53.558Z,96620.09
2019-02-02T01:18:24.761Z,96616.61
2019-02-02T01:20:55.995Z,96611.81
2019-02-02T01:23:27.484Z,96602.48
2019-02-02T01:25:58.548Z,96608.97
2019-02-02T01:28:29.732Z,96610.09
2019-02-02T01:31:01.116Z,96606.70
2019-02-02T01:33:32.166Z,96600.53
2019-02-02T01:36:04.739Z,96598.91
2019-02-02T01:38:36.231Z,96595.97
2019-02-02T01:41:07.675Z,96580.65
2019-02-02T01:43:38.934Z,96588.20
2019-02-02T01:46:10.061Z,96578.52
2019-02-02T01:48:41.188Z,96587.13
2019-02-02T01:51:12.218Z,96570.46
2019-02-02T01:53:43.241Z,96594.67
2019-02-02T01:56:14.559Z,96585.84
2019-02-02T01:58:47.279Z,96588.01
2019-02-02T02:01:18.918Z,96602.28
2019-02-02T02:03:50.622Z,96586.39
2019-02-02T02:06:22.422Z,96586.39
2019-02-02T02:08:55.134Z,96579.37
2019-02-02T02:11:26.369Z,96582.11
2019-02-02T02:13:57.601Z,96588.27
2019-02-02T02:16:28.799Z,96588.05
2019-02-02T02:19:00.497Z,96588.23
2019-02-02T02:21:33.411Z,96593.84
2019-02-02T02:24:05.380Z,96599.50
2019-02-02T02:26:36.574Z,96599.20
2019-02-02T02:29:07.764Z,96602.15
2019-02-02T02:31:39.049Z,96600.23
2019-02-02T02:34:12.489Z,96604.22
2019-02-02T02:36:44.853Z,96595.80
2019-02-02T02:39:16.665Z,96593.06
2019-02-02T02:41:49.943Z,96593.06
2019-02-02T02:44:21.680Z,96582.59
2019-02-02T02:46:52.852Z,96584.75
2019-02-02T02:49:24.146Z,96600.06
2019-02-02T02:51:55.493Z,96587.72
2019-02-02T02:54:28.146Z,96590.94
2019-02-02T02:56:59.412Z,96593.93
2019-02-02T02:59:31.986Z,96589.91
2019-02-02T03:02:03.670Z,96586.71
2019-02-02T03:04:36.640Z,96586.44
2019-02-02T03:07:07.738Z,96570.87
2019-02-02T03:09:38.795Z,96585.37
2019-02-02T03:12:11.247Z,96585.66
2019-02-02T03:14:42.501Z,96591.59
2019-02-02T03:17:13.873Z,96584.67
2019-02-02T03:19:45.150Z,96596.28
2019-02-02T03:22:16.188Z,96602.52
2019-02-02T03:24:47.654Z,96602.00
2019-02-02T03:27:19.013Z,96603.07
2019-02-02T03:29:50.943Z,96603.07
2019-02-02T03:32:22.227Z,96594.48
2019-02-02T03:34:53.629Z,96584.30
2019-02-02T03:37:24.769Z,96594.79
2019-02-02T03:39:56.158Z,96591.58
2019-02-02T03:42:28.625Z,96596.96
2019-02-02T03:45:00.000Z,96595.91
2019-02-02T03:47:33.532Z,96595.08
2019-02-02T03:50:07.013Z,96601.83
2019-02-02T03:52:40.246Z,96599.94
2019-02-02T03:55:12.725Z,96598.02
2019-02-02T03:57:44.009Z,96593.98
2019-02-02T04:00:21.166Z,96599.92
2019-02-02T04:02:52.574Z,96593.45
2019-02-02T04:05:26.183Z,96591.58
2019-02-02T04:07:57.934Z,96598.51
2019-02-02T04:10:29.518Z,96595.28
2019-02-02T04:13:01.927Z,96594.69
2019-02-02T04:15:33.781Z,96585.25
2019-02-02T04:18:06.039Z,96591.67
2019-02-02T04:20:37.450Z,96588.43
2019-02-02T04:23:08.764Z,96582.51
2019-02-02T04:25:40.259Z,96589.43
2019-02-02T04:28:11.572Z,96587.55
2019-02-02T04:30:42.969Z,96582.39
2019-02-02T04:33:14.065Z,96586.95
2019-02-02T04:35:45.202Z,96593.93
2019-02-02T04:38:16.487Z,96586.41
2019-02-02T04:40:47.782Z,96574.83
2019-02-02T04:43:20.390Z,96582.06
2019-02-02T04:45:52.059Z,96584.50
2019-02-02T04:48:23.498Z,96591.16
2019-02-02T04:50:54.715Z,96598.70
2019-02-02T04:53:27.285Z,96597.66
2019-02-02T04:55:58.363Z,96594.42
2019-02-02T04:58:29.457Z,96599.29
2019-02-02T05:01:02.213Z,96599.00
2019-02-02T05:03:33.339Z,96607.08
2019-02-02T05:06:04.687Z,96607.92
2019-02-02T05:08:35.951Z,96596.63
2019-02-02T05:11:07.140Z,96587.97
2019-02-02T05:13:38.559Z,96597.34
2019-02-02T05:16:10.769Z,96607.23
2019-02-02T05:18:41.835Z,96615.58
2019-02-02T05:21:13.056Z,96615.27
2019-02-02T05:23:44.677Z,96610.64
2019-02-02T05:26:16.246Z,96610.09
2019-02-02T05:28:47.800Z,96600.66
2019-02-02T05:31:19.260Z,96592.83
2019-02-02T05:33:53.631Z,96588.87
2019-02-02T05:36:24.809Z,96574.92
2019-02-02T05:38:56.070Z,96566.06
2019-02-02T05:41:27.236Z,96566.88
2019-02-02T05:43:58.460Z,96575.52
2019-02-02T05:46:29.734Z,96567.23
2019-02-02T05:49:01.790Z,96566.41
2019-02-02T05:51:33.229Z,96562.38
2019-02-02T05:54:04.976Z,96558.34
2019-02-02T05:56:36.427Z,96559.70
2019-02-02T05:59:07.611Z,96576.13
2019-02-02T06:01:40.763Z,96577.48
2019-02-02T06:04:11.854Z,96584.50
2019-02-02T06:06:43.031Z,96582.66
2019-02-02T06:09:14.206Z,96583.49
2019-02-02T06:11:47.204Z,96590.76
2019-02-02T06:14:19.466Z,96586.78
2019-02-02T06:16:50.845Z,96595.69
2019-02-02T06:19:22.157Z,96605.95
2019-02-02T06:21:58.918Z,96613.27
2019-02-02T06:24:30.198Z,96611.40
2019-02-02T06:27:03.249Z,96609.78
2019-02-02T06:29:34.452Z,96611.14
2019-02-02T06:32:11.982Z,96613.83
2019-02-02T06:34:40.249Z,96611.15
2019-02-02T06:37:11.345Z,96612.02
2019-02-02T06:39:42.497Z,96620.94
2019-02-02T06:42:14.005Z,96625.53
2019-02-02T06:44:45.147Z,96626.66
2019-02-02T06:47:16.612Z,96626.69
2019-02-02T06:49:47.864Z,96639.92
2019-02-02T06:52:19.861Z,96656.10
2019-02-02T06:54:50.862Z,96652.64
2019-02-02T06:57:22.380Z,96653.48
2019-02-02T06:59:54.409Z,96652.69
2019-02-02T07:02:26.290Z,96648.17
2019-02-02T07:04:57.316Z,96648.72
2019-02-02T07:07:28.495Z,96654.12
2019-02-02T07:09:59.518Z,96653.34
2019-02-02T07:12:30.581Z,96646.63
2019-02-02T07:15:01.923Z,96650.95
2019-02-02T07:17:34.092Z,96650.43
2019-02-02T07:20:06.745Z,96645.58
2019-02-02T07:22:37.974Z,96643.98
2019-02-02T07:25:10.584Z,96651.02
2019-02-02T07:27:42.366Z,96659.92
2019-02-02T07:30:28.327Z,96660.98
2019-02-02T07:32:51.218Z,96662.62
2019-02-02T07:35:22.650Z,96662.61
2019-02-02T07:37:53.683Z,96664.50
2019-02-02T07:40:24.885Z,96668.58
2019-02-02T07:42:56.082Z,96668.58
2019-02-02T07:45:29.414Z,96680.44
2019-02-02T07:48:00.522Z,96689.91
2019-02-02T07:50:31.580Z,96693.14
2019-02-02T07:53:02.775Z,96695.30
2019-02-02T07:55:33.793Z,96683.45
2019-02-02T07:58:05.848Z,96685.05
2019-02-02T08:00:41.360Z,96687.21
2019-02-02T08:03:14.828Z,96681.53
2019-02-02T08:05:45.882Z,96680.19
2019-02-02T08:08:17.231Z,96671.28
2019-02-02T08:10:48.285Z,96662.13
2019-02-02T08:13:19.643Z,96672.91
2019-02-02T08:15:51.010Z,96673.44
2019-02-02T08:18:22.296Z,96686.95
2019-02-02T08:20:53.256Z,96678.61
2019-02-02T08:23:24.280Z,96689.40
2019-02-02T08:25:55.543Z,96693.16
2019-02-02T08:28:26.775Z,96686.97
2019-02-02T08:30:57.745Z,96685.62
2019-02-02T08:33:28.871Z,96685.34
2019-02-02T08:36:00.050Z,96678.61
2019-02-02T08:38:31.347Z,96679.68
2019-02-02T08:41:02.416Z,96669.69
2019-02-02T08:43:33.692Z,96681.30
2019-02-02T08:46:04.719Z,96672.41
2019-02-02T08:48:35.924Z,96677.26
2019-02-02T08:51:09.374Z,96696.70
2019-02-02T08:53:59.973Z,96685.37
2019-02-02T08:56:49.559Z,96687.80
2019-02-02T08:59:40.146Z,96686.42
2019-02-02T09:02:30.657Z,96679.14
2019-02-02T09:05:20.928Z,96672.11
2019-02-02T09:08:10.477Z,96687.23
2019-02-02T09:11:00.077Z,96690.19
2019-02-02T09:13:32.059Z,96687.75
2019-02-02T09:16:03.604Z,96706.36
2019-02-02T09:18:35.222Z,96704.44
2019-02-02T09:21:07.355Z,96710.38
2019-02-02T09:23:39.375Z,96707.92
2019-02-02T09:32:53.894Z,96715.41
2019-02-02T09:35:25.377Z,96712.94
2019-02-02T09:37:56.605Z,96708.06
2019-02-02T09:40:28.120Z,96706.72
2019-02-02T09:42:59.488Z,96710.52
2019-02-02T09:45:30.832Z,96712.92
2019-02-02T09:48:03.052Z,96708.06
2019-02-02T09:50:34.195Z,96706.97
2019-02-02T09:53:06.212Z,96720.45
2019-02-02T09:55:37.630Z,96716.90
2019-02-02T09:58:11.479Z,96713.39
2019-02-02T10:00:46.195Z,96714.67
2019-02-02T10:03:17.476Z,96718.77
2019-02-02T10:05:48.701Z,96710.91
2019-02-02T10:08:19.930Z,96699.58
2019-02-02T10:10:50.996Z,96700.69
2019-02-02T10:13:22.161Z,96702.59
2019-02-02T10:15:53.503Z,96699.88
2019-02-02T10:18:24.570Z,96699.33
2019-02-02T10:21:03.641Z,96701.50
2019-02-02T10:23:28.456Z,96706.34
2019-02-02T10:25:59.809Z,96701.20
2019-02-02T10:28:31.812Z,96705.81
2019-02-02T10:31:02.963Z,96706.86
2019-02-02T10:33:34.033Z,96708.48
2019-02-02T10:36:05.587Z,96711.16
2019-02-02T10:38:36.803Z,96714.10
2019-02-02T10:41:07.860Z,96706.78
2019-02-02T10:43:38.926Z,96711.08
2019-02-02T10:46:10.943Z,96711.34
2019-02-02T10:48:42.239Z,96705.94
2019-02-02T10:51:13.651Z,96712.93
2019-02-02T10:53:45.273Z,96718.06
2019-02-02T10:56:16.334Z,96713.11
2019-02-02T10:58:47.980Z,96706.03
2019-02-02T11:01:19.178Z,96711.13
2019-02-02T11:03:50.469Z,96731.44
2019-02-02T11:06:21.814Z,96724.41
2019-02-02T11:08:53.175Z,96709.70
2019-02-02T11:11:24.396Z,96723.02
2019-02-02T11:13:55.385Z,96730.02
2019-02-02T11:16:26.531Z,96724.84
2019-02-02T11:18:57.656Z,96708.70
2019-02-02T11:21:29.170Z,96715.81
2019-02-02T11:24:00.264Z,96710.13
2019-02-02T11:26:31.657Z,96718.17
2019-02-02T11:29:03.019Z,96716.75
2019-02-02T11:31:34.103Z,96718.38
2019-02-02T11:34:05.795Z,96713.72
2019-02-02T11:36:36.912Z,96723.66
2019-02-02T11:39:09.480Z,96734.96
2019-02-02T11:41:40.927Z,96728.85
2019-02-02T11:44:12.207Z,96724.66
2019-02-02T11:46:43.560Z,96714.98
2019-02-02T11:49:14.573Z,96719.22
2019-02-02T11:51:45.846Z,96711.31
2019-02-02T11:54:16.853Z,96717.28
2019-02-02T11:56:47.971Z,96716.64
2019-02-02T11:59:19.388Z,96706.98
2019-02-02T12:01:50.530Z,96703.66
2019-02-02T12:04:21.738Z,96693.89
2019-02-02T12:06:52.843Z,96705.50
2019-02-02T12:09:24.139Z,96696.20
2019-02-02T12:11:56.237Z,96688.19
2019-02-02T12:14:27.395Z,96693.17
2019-02-02T12:16:58.758Z,96697.45
2019-02-02T12:19:30.227Z,96687.81
2019-02-02T12:22:01.296Z,96692.66
2019-02-02T12:24:32.575Z,96692.00
2019-02-02T12:27:03.578Z,96702.55
2019-02-02T12:29:35.085Z,96696.58
2019-02-02T12:32:06.601Z,96695.26
2019-02-02T12:34:38.253Z,96687.00
2019-02-02T12:37:09.313Z,96686.02
2019-02-02T12:39:41.034Z,96690.02
2019-02-02T12:42:12.100Z,96681.45
2019-02-02T12:44:43.561Z,96671.39
2019-02-02T12:47:14.645Z,96671.39
2019-02-02T12:49:45.783Z,96642.46
2019-02-02T12:52:17.050Z,96642.02
2019-02-02T12:54:48.275Z,96632.95
2019-02-02T12:57:19.393Z,96639.89
2019-02-02T12:59:50.602Z,96659.53
2019-02-02T13:02:25.435Z,96673.07
2019-02-02T13:04:55.765Z,96683.15
2019-02-02T13:07:26.818Z,96675.95
2019-02-02T13:09:57.911Z,96675.95
2019-02-02T13:12:29.151Z,96687.41
2019-02-02T13:15:00.495Z,96715.52
2019-02-02T13:17:32.811Z,96717.66
2019-02-02T13:20:05.168Z,96713.89
2019-02-02T13:22:36.473Z,96707.78
2019-02-02T13:25:10.122Z,96693.45
2019-02-02T13:27:41.165Z,96689.57
2019-02-02T13:30:15.920Z,96689.27
2019-02-02T13:32:49.799Z,96689.88
2019-02-02T13:35:19.979Z,96695.05
2019-02-02T13:37:51.142Z,96690.42
2019-02-02T13:40:23.786Z,96701.26
2019-02-02T14:50:37.004Z,96699.30
2019-02-02T14:53:10.277Z,96692.02
2019-02-02T14:55:41.671Z,96708.03
2019-02-02T14:58:13.390Z,96725.68
2019-02-02T15:00:44.410Z,96719.23
2019-02-02T15:03:25.561Z,96714.39
2019-02-02T15:05:48.939Z,96701.16
2019-02-02T15:08:19.955Z,96687.11
2019-02-02T15:10:50.999Z,96691.14
2019-02-02T15:13:22.019Z,96704.95
2019-02-02T15:15:53.063Z,96724.94
2019-02-02T15:18:24.275Z,96736.28
2019-02-02T15:20:55.382Z,96744.92
2019-02-02T15:23:26.385Z,96752.22
2019-02-02T15:25:57.625Z,96756.78
2019-02-02T15:28:28.748Z,96761.36
2019-02-02T15:30:59.817Z,96767.88
2019-02-02T15:33:49.620Z,96764.61
2019-02-02T15:36:20.763Z,96768.67
2019-02-02T15:38:52.018Z,96766.56
2019-02-02T15:41:23.518Z,96757.13
2019-02-02T15:43:54.530Z,96770.91
2019-02-02T15:46:25.562Z,96781.74
2019-02-02T15:48:56.645Z,96782.02
2019-02-02T15:51:39.779Z,96788.00
2019-02-02T15:54:00.995Z,96791.01
2019-02-02T15:56:32.217Z,96792.13
2019-02-02T15:59:03.495Z,96783.76
2019-02-02T16:01:34.604Z,96782.20
2019-02-02T16:06:09.452Z,96771.39
2019-02-02T16:08:40.566Z,96752.56
2019-02-02T16:11:13.027Z,96743.92
2019-02-02T16:13:44.962Z,96735.81
2019-02-02T16:16:16.593Z,96737.66
2019-02-02T16:18:48.827Z,96742.75
2019-02-02T16:21:20.229Z,96753.25
2019-02-02T16:23:51.766Z,96765.41
2019-02-02T16:26:23.573Z,96762.23
2019-02-02T16:28:54.897Z,96780.84
2019-02-02T16:31:26.497Z,96789.80
2019-02-02T16:34:02.112Z,96804.45
2019-02-02T16:36:31.665Z,96802.53
2019-02-02T16:39:06.134Z,96802.53
2019-02-02T16:41:39.827Z,96824.97
2019-02-02T16:44:12.404Z,96814.45
2019-02-02T16:46:44.874Z,96827.41
2019-02-02T16:49:16.055Z,96833.88
2019-02-02T16:51:47.269Z,96826.31
2019-02-02T16:54:18.402Z,96830.09
2019-02-02T16:56:51.016Z,96826.05
2019-02-02T16:59:22.703Z,96810.35
2019-02-02T17:01:53.922Z,96811.97
2019-02-02T17:04:24.952Z,96815.48
2019-02-02T17:06:56.181Z,96824.13
2019-02-02T17:09:27.521Z,96827.10
2019-02-02T17:11:58.695Z,96844.67
2019-02-02T17:14:29.893Z,96847.63
2019-02-02T17:17:00.896Z,96854.94
2019-02-02T17:19:31.984Z,96863.58
2019-02-02T17:22:03.455Z,96863.30
2019-02-02T17:24:35.387Z,96872.51
2019-02-02T17:27:06.801Z,96864.66
2019-02-02T17:29:37.991Z,96855.77
2019-02-02T17:32:09.065Z,96854.97
2019-02-02T17:34:40.809Z,96858.73
2019-02-02T17:37:11.970Z,96867.37
2019-02-02T17:39:43.783Z,96865.48
2019-02-02T17:42:14.908Z,96876.29
2019-02-02T17:44:50.412Z,96868.19
2019-02-02T17:47:21.740Z,96880.62
2019-02-02T17:49:52.865Z,96871.43
2019-02-02T17:52:24.033Z,96874.95
2019-02-02T17:54:55.118Z,96876.55
2019-02-02T17:57:26.101Z,96873.58
2019-02-02T17:59:57.287Z,96863.80
2019-02-02T18:02:28.348Z,96872.45
2019-02-02T18:04:59.423Z,96875.14
2019-02-02T18:07:30.550Z,96878.09
2019-02-02T18:10:01.668Z,96882.14
2019-02-02T18:12:32.694Z,96882.39
2019-02-02T18:15:04.754Z,96880.73
2019-02-02T18:17:35.998Z,96891.26
2019-02-02T18:20:09.068Z,96895.81
2019-02-02T18:22:40.225Z,96913.11
2019-02-02T18:25:12.617Z,96919.88
2019-02-02T18:27:44.360Z,96917.12
2019-02-02T18:30:18.370Z,96913.52
2019-02-02T18:32:49.719Z,96912.41
2019-02-02T18:35:21.268Z,96907.47
2019-02-02T18:37:52.280Z,96913.09
2019-02-02T18:40:23.552Z,96914.42
2019-02-02T18:42:55.622Z,96921.48
2019-02-02T18:45:27.175Z,96924.44
2019-02-02T18:47:58.351Z,96938.80
2019-02-02T18:50:29.575Z,96944.19
2019-02-02T18:53:00.721Z,96938.21
2019-02-02T18:55:35.129Z,96931.39
2019-02-02T18:58:06.624Z,96926.57
2019-02-02T19:00:38.772Z,96942.00
2019-02-02T19:03:10.060Z,96944.98
2019-02-02T19:05:41.321Z,96945.01
2019-02-02T19:08:12.281Z,96950.97
2019-02-02T19:10:44.047Z,96960.70
2019-02-02T19:13:15.576Z,96971.56
2019-02-02T19:15:46.919Z,96966.70
2019-02-02T19:18:18.090Z,96969.14
2019-02-02T19:20:49.245Z,96968.61
2019-02-02T19:23:25.243Z,96967.83
2019-02-02T19:25:53.333Z,96969.78
2019-02-02T19:28:26.492Z,96975.23
2019-02-02T19:30:57.330Z,96985.78
2019-02-02T19:33:28.547Z,96990.15
2019-02-02T19:35:59.625Z,96986.39
2019-02-02T19:38:30.666Z,96997.77
2019-02-02T19:41:01.916Z,97002.92
2019-02-02T19:43:32.974Z,97003.70
2019-02-02T19:46:04.253Z,97005.64
2019-02-02T19:48:35.394Z,97011.06
2019-02-02T19:51:06.443Z,97018.11
2019-02-02T19:53:37.637Z,97022.99
2019-02-02T19:56:08.587Z,97032.47
2019-02-02T19:58:39.759Z,97028.14
2019-02-02T20:01:10.808Z,97033.28
2019-02-02T20:03:41.845Z,97029.22
2019-02-02T20:06:13.042Z,97027.31
2019-02-02T20:08:44.440Z,97035.41
2019-02-02T20:11:15.558Z,97035.38
2019-02-02T20:13:53.397Z,97038.08
2019-02-02T20:16:24.529Z,97023.17
2019-02-02T20:18:55.632Z,97028.33
2019-02-02T20:21:26.719Z,97032.13
2019-02-02T20:23:58.138Z,97034.56
2019-02-02T20:26:29.285Z,97040.02
2019-02-02T20:29:00.359Z,97044.37
2019-02-02T20:31:31.575Z,97051.70
2019-02-02T20:34:02.713Z,97050.91
2019-02-02T20:36:33.789Z,97051.75
2019-02-02T20:39:08.722Z,97049.03
2019-02-02T20:41:39.960Z,97055.00
2019-02-02T20:44:11.102Z,97049.86
2019-02-02T20:46:42.555Z,97052.02
2019-02-02T20:49:13.670Z,97052.85
2019-02-02T20:51:44.838Z,97060.16
2019-02-02T20:54:19.041Z,97066.40
2019-02-02T20:56:49.051Z,97066.13
2019-02-02T20:59:21.849Z,97069.09
2019-02-02T21:01:53.031Z,97068.84
2019-02-02T21:04:28.830Z,97075.33
2019-02-02T21:07:00.398Z,97079.11
2019-02-02T21:09:31.662Z,97080.72
2019-02-02T21:12:02.952Z,97089.63
2019-02-02T21:14:34.121Z,97089.63
2019-02-02T21:17:05.745Z,97086.38
2019-02-02T21:19:36.952Z,97093.39
2019-02-02T21:22:07.936Z,97095.28
2019-02-02T21:24:38.976Z,97084.46
2019-02-02T21:27:10.009Z,97082.29
2019-02-02T21:29:41.523Z,97079.58
2019-02-02T21:32:12.554Z,97089.86
2019-02-02T21:34:43.553Z,97088.51
2019-02-02T21:37:14.715Z,97092.28
2019-02-02T21:39:45.877Z,97093.63
2019-02-02T21:42:17.150Z,97100.62
2019-02-02T21:44:48.580Z,97098.19
2019-02-02T21:47:19.657Z,97112.48
2019-02-02T21:49:50.671Z,97111.11
2019-02-02T21:52:21.741Z,97106.76
2019-02-02T21:54:53.286Z,97114.80
2019-02-02T21:57:24.293Z,97107.20
2019-02-02T21:59:56.551Z,97103.66
2019-02-02T22:02:27.559Z,97104.70
2019-02-02T22:04:59.233Z,97114.02
2019-02-02T22:07:30.309Z,97120.64
2019-02-02T22:10:01.509Z,97122.43
2019-02-02T22:12:32.894Z,97129.05
2019-02-02T22:15:05.137Z,97132.22
2019-02-02T22:17:36.200Z,97133.71
2019-02-02T22:20:08.458Z,97131.21
2019-02-02T22:22:39.658Z,97141.33
2019-02-02T22:25:13.954Z,97128.09
2019-02-02T22:27:46.233Z,97130.14
2019-02-02T22:30:19.779Z,97125.77
2019-02-02T22:32:50.860Z,97128.44
2019-02-02T22:35:23.528Z,97126.44
2019-02-02T22:37:56.287Z,97123.66
2019-02-02T22:40:28.995Z,97127.86
2019-02-02T22:43:02.214Z,97126.67
2019-02-02T22:45:33.568Z,97124.19
2019-02-02T22:48:06.590Z,97127.12
2019-02-02T22:50:38.099Z,97135.02
2019-02-02T22:53:09.551Z,97143.45
2019-02-02T22:55:42.089Z,97149.41
2019-02-02T22:58:14.664Z,97158.66
2019-02-02T23:01:13.862Z,97163.26
2019-02-02T23:04:04.926Z,97159.83
2019-02-02T23:06:59.726Z,97166.82
2019-02-02T23:09:58.567Z,97167.61
2019-02-02T23:12:57.843Z,97167.59
2019-02-02T23:15:55.799Z,97164.55
2019-02-02T23:18:29.073Z,97169.30
2019-02-02T23:21:00.608Z,97164.88
2019-02-02T23:23:32.268Z,97158.35
2019-02-02T23:26:03.578Z,97165.45
2019-02-02T23:28:34.885Z,97166.13
2019-02-02T23:31:06.369Z,97173.34
2019-02-02T23:33:37.777Z,97163.30
2019-02-02T23:36:09.074Z,97164.42
2019-02-02T23:38:40.608Z,97159.06
2019-02-02T23:41:12.024Z,97161.47
2019-02-02T23:43:44.063Z,97156.61
2019-02-02T23:46:16.159Z,97156.61
2019-02-02T23:48:47.537Z,97159.59
2019-02-02T23:51:18.892Z,97150.93
2019-02-02T23:53:53.115Z,97150.98
2019-02-02T23:56:24.753Z,97157.75
2019-02-02T23:58:56.120Z,97154.59
